createdAt,value
2018-09-14T00:00:43.680Z,100048.91
2018-09-14T00:02:19.133Z,100048.10
2018-09-14T00:03:54.652Z,100047.42
2018-09-14T00:05:30.119Z,100050.23
2018-09-14T00:07:06.175Z,100047.73
2018-09-14T00:08:41.698Z,100047.06
2018-09-14T00:10:17.249Z,100045.48
2018-09-14T00:11:52.799Z,100039.59
2018-09-14T00:13:28.337Z,100032.67
2018-09-14T00:15:04.124Z,100031.90
2018-09-14T00:16:39.632Z,100028.03
2018-09-14T00:18:15.174Z,100032.35
2018-09-14T00:19:50.817Z,100027.91
2018-09-14T00:21:26.328Z,100033.63
2018-09-14T00:23:01.884Z,100040.81
2018-09-14T00:24:37.441Z,100037.27
2018-09-14T00:26:12.961Z,100037.14
2018-09-14T00:27:48.516Z,100032.27
2018-09-14T00:29:24.084Z,100040.01
2018-09-14T00:30:59.597Z,100037.78
2018-09-14T00:32:35.264Z,100033.40
2018-09-14T00:34:10.804Z,100029.64
2018-09-14T00:35:46.402Z,100026.95
2018-09-14T00:37:21.924Z,100031.09
2018-09-14T00:38:57.409Z,100030.81
2018-09-14T00:40:32.978Z,100028.44
2018-09-14T00:42:08.468Z,100030.29
2018-09-14T00:43:44.156Z,100028.55
2018-09-14T00:45:19.755Z,100029.80
2018-09-14T00:46:55.271Z,100028.80
2018-09-14T00:48:30.806Z,100030.50
2018-09-14T00:50:06.724Z,100031.62
2018-09-14T00:51:42.365Z,100030.91
2018-09-14T00:53:17.859Z,100030.84
2018-09-14T00:54:54.240Z,100031.69
2018-09-14T00:56:29.737Z,100031.81
2018-09-14T00:58:05.262Z,100031.50
2018-09-14T00:59:40.727Z,100031.91
2018-09-14T01:01:16.216Z,100030.29
2018-09-14T01:02:51.706Z,100028.16
2018-09-14T01:04:27.242Z,100034.03
2018-09-14T01:06:02.787Z,99980.41
2018-09-14T01:07:38.305Z,100021.95
2018-09-14T01:09:17.954Z,100022.48
2018-09-14T01:10:53.475Z,100033.34
2018-09-14T01:12:28.992Z,100032.99
2018-09-14T01:14:04.499Z,100038.39
2018-09-14T01:15:40.034Z,100036.34
2018-09-14T01:17:15.664Z,100041.84
2018-09-14T01:18:52.188Z,100033.92
2018-09-14T01:20:27.752Z,100041.94
2018-09-14T01:22:04.143Z,100040.44
2018-09-14T01:23:39.657Z,100043.70
2018-09-14T01:25:15.145Z,100040.18
2018-09-14T01:26:50.785Z,100041.79
2018-09-14T01:28:26.271Z,100046.34
2018-09-14T01:30:01.820Z,100038.95
2018-09-14T01:31:37.338Z,100046.71
2018-09-14T01:33:12.890Z,100044.95
2018-09-14T01:34:48.377Z,100045.62
2018-09-14T01:36:23.874Z,100045.03
2018-09-14T01:37:59.481Z,100042.91
2018-09-14T01:39:35.304Z,100040.94
2018-09-14T01:41:11.065Z,100035.63
2018-09-14T01:42:46.814Z,100035.72
2018-09-14T01:44:22.350Z,100040.02
2018-09-14T01:45:57.874Z,100037.25
2018-09-14T01:47:33.471Z,100037.95
2018-09-14T01:49:08.974Z,100041.48
2018-09-14T01:50:44.577Z,100040.61
2018-09-14T01:52:20.121Z,100047.67
2018-09-14T01:53:55.606Z,100046.26
2018-09-14T01:55:31.138Z,100044.19
2018-09-14T01:57:06.973Z,100041.75
2018-09-14T01:58:42.484Z,100044.23
2018-09-14T02:00:18.069Z,100041.12
2018-09-14T02:01:53.596Z,100041.75
2018-09-14T02:03:29.208Z,100039.00
2018-09-14T02:05:05.198Z,100032.56
2018-09-14T02:06:40.767Z,100035.71
2018-09-14T02:08:16.278Z,100038.79
2018-09-14T02:09:51.773Z,100039.36
2018-09-14T02:11:27.299Z,100037.45
2018-09-14T02:13:02.839Z,100039.36
2018-09-14T02:14:38.380Z,100033.77
2018-09-14T02:16:13.865Z,100034.09
2018-09-14T02:17:49.470Z,100033.11
2018-09-14T02:19:24.982Z,100031.73
2018-09-14T02:21:00.566Z,100028.75
2018-09-14T02:22:36.046Z,100029.16
2018-09-14T02:24:11.559Z,100035.34
2018-09-14T02:25:47.100Z,100032.66
2018-09-14T02:27:22.677Z,100031.73
2018-09-14T02:28:58.233Z,100030.97
2018-09-14T02:30:33.821Z,100032.09
2018-09-14T02:32:09.384Z,100030.18
2018-09-14T02:33:44.930Z,100035.77
2018-09-14T02:35:20.452Z,100033.91
2018-09-14T02:36:55.956Z,100027.66
2018-09-14T02:38:31.594Z,100023.11
2018-09-14T02:40:07.120Z,100025.92
2018-09-14T02:41:42.663Z,100028.92
2018-09-14T02:43:18.166Z,100029.92
2018-09-14T02:44:53.732Z,100032.77
2018-09-14T02:46:29.315Z,100033.42
2018-09-14T02:48:04.787Z,100030.90
2018-09-14T02:49:40.321Z,100029.48
2018-09-14T02:51:15.817Z,100028.52
2018-09-14T02:52:51.347Z,100027.95
2018-09-14T02:54:27.114Z,100023.36
2018-09-14T02:56:02.661Z,100022.45
2018-09-14T02:57:38.254Z,100019.09
2018-09-14T02:59:13.781Z,100018.04
2018-09-14T03:00:49.672Z,100012.72
2018-09-14T03:02:25.227Z,100018.05
2018-09-14T03:04:00.755Z,100013.34
2018-09-14T03:05:36.244Z,100019.13
2018-09-14T03:07:11.816Z,100016.00
2018-09-14T03:08:47.312Z,100026.38
2018-09-14T03:10:22.882Z,100024.69
2018-09-14T03:11:58.381Z,100022.44
2018-09-14T03:13:33.963Z,100024.97
2018-09-14T03:15:09.660Z,100029.28
2018-09-14T03:16:45.200Z,100030.52
2018-09-14T03:18:20.719Z,100028.80
2018-09-14T03:21:37.948Z,100023.63
2018-09-14T03:23:13.473Z,100023.21
2018-09-14T03:24:49.007Z,100032.02
2018-09-14T03:26:24.917Z,100033.83
2018-09-14T03:28:00.424Z,100031.86
2018-09-14T03:29:35.972Z,100030.59
2018-09-14T03:31:11.538Z,100030.53
2018-09-14T03:32:47.059Z,100026.75
2018-09-14T03:34:22.621Z,100024.11
2018-09-14T03:35:58.101Z,100030.05
2018-09-14T03:37:33.632Z,100031.38
2018-09-14T03:39:10.254Z,100029.55
2018-09-14T03:40:45.910Z,100031.37
2018-09-14T03:42:21.936Z,100027.91
2018-09-14T03:43:57.461Z,100026.17
2018-09-14T03:45:33.003Z,100031.51
2018-09-14T03:47:08.724Z,100033.41
2018-09-14T03:48:44.265Z,100027.38
2018-09-14T03:50:19.790Z,100032.14
2018-09-14T03:51:55.439Z,100035.09
2018-09-14T03:53:31.146Z,100036.00
2018-09-14T03:55:06.747Z,100034.94
2018-09-14T03:56:42.286Z,100040.94
2018-09-14T03:58:17.849Z,100035.00
2018-09-14T03:59:53.376Z,100035.30
2018-09-14T04:01:28.886Z,100032.02
2018-09-14T04:03:04.464Z,100036.96
2018-09-14T04:04:40.174Z,100035.24
2018-09-14T04:06:15.838Z,100034.88
2018-09-14T04:07:51.486Z,100043.55
2018-09-14T04:09:26.929Z,100037.41
2018-09-14T04:11:02.432Z,100041.45
2018-09-14T04:12:37.943Z,100031.45
2018-09-14T04:14:13.876Z,100038.01
2018-09-14T04:15:49.376Z,100039.55
2018-09-14T04:17:24.902Z,100039.22
2018-09-14T04:19:04.210Z,100036.28
2018-09-14T04:20:39.774Z,100043.12
2018-09-14T04:22:15.349Z,100042.55
2018-09-14T04:23:50.878Z,100041.03
2018-09-14T04:25:26.477Z,100034.88
2018-09-14T04:27:03.107Z,100038.79
2018-09-14T04:28:38.683Z,100039.28
2018-09-14T04:30:14.252Z,100037.61
2018-09-14T04:31:49.785Z,100034.17
2018-09-14T04:33:25.334Z,100042.00
2018-09-14T04:35:00.924Z,100039.34
2018-09-14T04:36:36.430Z,100036.96
2018-09-14T04:38:12.029Z,100033.63
2018-09-14T04:39:47.532Z,100039.25
2018-09-14T04:41:23.187Z,100040.73
2018-09-14T04:42:58.689Z,100044.95
2018-09-14T04:44:34.241Z,100044.44
2018-09-14T04:46:09.747Z,100046.11
2018-09-14T04:47:45.391Z,100044.47
2018-09-14T04:49:21.025Z,100050.45
2018-09-14T04:50:57.656Z,100041.44
2018-09-14T04:52:33.291Z,100047.81
2018-09-14T04:54:08.952Z,100047.23
2018-09-14T04:55:45.542Z,100048.09
2018-09-14T04:57:21.296Z,100048.23
2018-09-14T04:58:57.033Z,100051.39
2018-09-14T05:00:32.645Z,100054.55
2018-09-14T05:02:08.339Z,100056.06
2018-09-14T05:03:43.943Z,100054.31
2018-09-14T05:05:19.520Z,100051.09
2018-09-14T05:06:55.097Z,100059.16
2018-09-14T05:08:32.157Z,100051.84
2018-09-14T05:10:09.635Z,100055.83
2018-09-14T05:11:45.197Z,100057.81
2018-09-14T05:13:21.359Z,100056.17
2018-09-14T05:14:56.946Z,100056.81
2018-09-14T05:16:32.749Z,100056.48
2018-09-14T05:18:08.754Z,100058.13
2018-09-14T05:19:44.289Z,100056.78
2018-09-14T05:21:20.904Z,100058.33
2018-09-14T05:23:00.483Z,100060.83
2018-09-14T05:24:36.068Z,100061.42
2018-09-14T05:26:11.555Z,100060.56
2018-09-14T05:27:48.567Z,100065.77
2018-09-14T05:29:24.608Z,100061.53
2018-09-14T05:31:00.901Z,100064.39
2018-09-14T05:32:36.447Z,100069.83
2018-09-14T05:34:11.963Z,100065.88
2018-09-14T05:35:47.476Z,100066.07
2018-09-14T05:37:23.022Z,100070.91
2018-09-14T05:38:58.630Z,100070.91
2018-09-14T05:40:34.143Z,100072.73
2018-09-14T05:42:09.675Z,100082.22
2018-09-14T05:43:45.196Z,100086.41
2018-09-14T05:45:20.762Z,100079.42
2018-09-14T05:46:56.287Z,100078.75
2018-09-14T05:48:31.814Z,100079.06
2018-09-14T05:50:07.349Z,100087.15
2018-09-14T05:51:42.891Z,100087.63
2018-09-14T05:53:18.768Z,100088.30
2018-09-14T05:54:54.348Z,100092.40
2018-09-14T05:56:29.952Z,100087.58
2018-09-14T05:58:05.924Z,100097.66
2018-09-14T05:59:41.462Z,100096.06
2018-09-14T06:01:16.967Z,100096.59
2018-09-14T06:02:52.535Z,100103.30
2018-09-14T06:04:28.125Z,100098.89
2018-09-14T06:06:03.711Z,100101.97
2018-09-14T06:07:39.288Z,100099.14
2018-09-14T06:09:14.867Z,100101.67
2018-09-14T06:10:50.392Z,100099.70
2018-09-14T06:12:25.922Z,100110.30
2018-09-14T06:14:01.548Z,100105.20
2018-09-14T06:15:37.092Z,100107.80
2018-09-14T06:17:12.716Z,100107.66
2018-09-14T06:18:48.241Z,100104.18
2018-09-14T06:20:23.766Z,100109.77
2018-09-14T06:21:59.379Z,100110.12
2018-09-14T06:23:34.916Z,100110.05
2018-09-14T06:25:10.471Z,100108.61
2018-09-14T06:26:46.002Z,100104.87
2018-09-14T06:28:21.595Z,100114.81
2018-09-14T06:29:57.109Z,100105.14
2018-09-14T06:31:32.642Z,100106.80
2018-09-14T06:33:08.172Z,100105.37
2018-09-14T06:34:43.710Z,100109.23
2018-09-14T06:36:19.344Z,100105.78
2018-09-14T06:37:54.859Z,100102.30
2018-09-14T06:39:30.379Z,100095.98
2018-09-14T06:41:05.915Z,100095.41
2018-09-14T06:42:41.458Z,100090.05
2018-09-14T06:44:16.932Z,100094.07
2018-09-14T06:45:52.498Z,100095.30
2018-09-14T06:47:28.017Z,100091.61
2018-09-14T06:49:04.319Z,100088.47
2018-09-14T06:50:39.891Z,100089.50
2018-09-14T06:52:15.468Z,100087.28
2018-09-14T06:53:51.034Z,100087.17
2018-09-14T06:55:26.566Z,100089.00
2018-09-14T06:57:02.183Z,100084.07
2018-09-14T06:58:37.729Z,100083.45
2018-09-14T07:00:13.388Z,100084.78
2018-09-14T07:01:48.885Z,100083.80
2018-09-14T07:03:24.421Z,100086.26
2018-09-14T07:04:59.952Z,100086.19
2018-09-14T07:06:35.605Z,100089.80
2018-09-14T07:08:11.040Z,100094.98
2018-09-14T07:09:46.565Z,100094.59
2018-09-14T07:11:22.176Z,100095.34
2018-09-14T07:12:57.724Z,100097.81
2018-09-14T07:14:33.264Z,100101.24
2018-09-14T07:16:08.840Z,100102.85
2018-09-14T07:17:44.680Z,100108.49
2018-09-14T07:19:20.255Z,100107.42
2018-09-14T07:20:55.853Z,100109.37
2018-09-14T07:22:31.401Z,100108.55
2018-09-14T07:24:06.941Z,100113.53
2018-09-14T07:25:42.448Z,100116.55
2018-09-14T07:27:17.914Z,100112.76
2018-09-14T07:28:53.530Z,100120.16
2018-09-14T07:30:29.003Z,100114.45
2018-09-14T07:32:04.585Z,100114.03
2018-09-14T07:33:40.063Z,100120.52
2018-09-14T07:35:15.625Z,100117.46
2018-09-14T07:36:51.149Z,100120.00
2018-09-14T07:38:26.799Z,100121.97
2018-09-14T07:40:02.324Z,100116.65
2018-09-14T07:41:37.819Z,100115.77
2018-09-14T07:43:13.338Z,100124.98
2018-09-14T07:44:48.870Z,100121.13
2018-09-14T07:46:24.489Z,100120.03
2018-09-14T07:48:00.085Z,100120.39
2018-09-14T07:49:35.615Z,100124.61
2018-09-14T07:51:11.145Z,100126.91
2018-09-14T07:52:46.774Z,100127.55
2018-09-14T07:54:22.291Z,100132.14
2018-09-14T07:55:57.875Z,100132.70
2018-09-14T07:57:33.403Z,100136.53
2018-09-14T07:59:08.945Z,100134.84
2018-09-14T08:00:44.453Z,100137.22
2018-09-14T08:02:20.009Z,100136.56
2018-09-14T08:03:55.527Z,100135.36
2018-09-14T08:05:31.066Z,100139.59
2018-09-14T08:07:06.637Z,100138.34
2018-09-14T08:08:42.174Z,100136.73
2018-09-14T08:10:17.723Z,100142.48
2018-09-14T08:11:53.284Z,100139.73
2018-09-14T08:13:28.768Z,100140.53
2018-09-14T08:15:04.326Z,100139.63
2018-09-14T08:16:39.877Z,100140.08
2018-09-14T08:18:15.380Z,100142.84
2018-09-14T08:19:50.951Z,100144.72
2018-09-14T08:21:26.550Z,100144.84
2018-09-14T08:23:02.232Z,100143.48
2018-09-14T08:24:38.124Z,100142.75
2018-09-14T08:26:13.797Z,100142.63
2018-09-14T08:27:49.258Z,100152.15
2018-09-14T08:29:24.824Z,100150.14
2018-09-14T08:31:00.327Z,100152.53
2018-09-14T08:32:35.839Z,100151.69
2018-09-14T08:34:11.390Z,100147.59
2018-09-14T08:35:46.917Z,100149.52
2018-09-14T08:37:22.573Z,100148.92
2018-09-14T08:38:58.150Z,100146.31
2018-09-14T08:40:33.655Z,100143.56
2018-09-14T08:42:09.191Z,100140.91
2018-09-14T08:43:44.673Z,100148.63
2018-09-14T08:45:20.227Z,100144.63
2018-09-14T08:46:55.835Z,100150.07
2018-09-14T08:48:31.388Z,100150.20
2018-09-14T08:50:06.917Z,100157.96
2018-09-14T08:51:42.415Z,100149.83
2018-09-14T08:53:17.965Z,100154.83
2018-09-14T08:54:53.476Z,100155.20
2018-09-14T08:56:29.001Z,100158.38
2018-09-14T08:58:04.696Z,100161.02
2018-09-14T08:59:40.170Z,100164.74
2018-09-14T09:01:15.682Z,100160.09
2018-09-14T09:02:51.665Z,100163.19
2018-09-14T09:04:27.189Z,100171.66
2018-09-14T09:06:02.692Z,100174.88
2018-09-14T09:07:38.229Z,100174.12
2018-09-14T09:09:13.891Z,100168.79
2018-09-14T09:10:49.363Z,100173.17
2018-09-14T09:12:24.954Z,100168.72
2018-09-14T09:14:00.608Z,100170.27
2018-09-14T09:15:36.180Z,100165.59
2018-09-14T09:17:11.797Z,100159.94
2018-09-14T09:18:47.364Z,100157.64
2018-09-14T09:20:22.865Z,100158.72
2018-09-14T09:23:48.377Z,100161.91
2018-09-14T09:25:23.932Z,100164.91
2018-09-14T09:26:59.468Z,100163.44
2018-09-14T09:28:35.016Z,100161.61
2018-09-14T09:30:10.523Z,100163.52
2018-09-14T09:31:46.090Z,100164.69
2018-09-14T09:33:21.627Z,100164.61
2018-09-14T09:34:57.220Z,100162.13
2018-09-14T09:36:32.767Z,100163.88
2018-09-14T09:38:08.960Z,100161.50
2018-09-14T09:39:44.661Z,100161.70
2018-09-14T09:41:20.185Z,100160.23
2018-09-14T09:42:55.681Z,100156.89
2018-09-14T09:44:31.256Z,100153.50
2018-09-14T09:46:06.742Z,100148.06
2018-09-14T09:47:42.313Z,100141.94
2018-09-14T09:49:18.455Z,100144.63
2018-09-14T09:50:54.053Z,100146.83
2018-09-14T09:52:29.570Z,100137.26
2018-09-14T09:54:05.178Z,100139.55
2018-09-14T09:55:40.750Z,100144.00
2018-09-14T09:57:16.356Z,100140.12
2018-09-14T09:58:51.907Z,100142.80
2018-09-14T10:00:32.770Z,100145.95
2018-09-14T10:02:13.719Z,100146.44
2018-09-14T10:03:54.682Z,100145.89
2018-09-14T10:05:35.690Z,100140.92
2018-09-14T10:07:11.533Z,100136.91
2018-09-14T10:08:47.096Z,100132.91
2018-09-14T10:10:22.777Z,100132.11
2018-09-14T10:11:58.271Z,100126.65
2018-09-14T10:13:34.092Z,100122.97
2018-09-14T10:15:09.757Z,100122.19
2018-09-14T10:16:45.218Z,100123.28
2018-09-14T10:18:20.752Z,100125.92
2018-09-14T10:19:56.352Z,100126.12
2018-09-14T10:21:32.520Z,100120.97
2018-09-14T10:23:08.091Z,100121.00
2018-09-14T10:24:43.851Z,100117.16
2018-09-14T10:26:19.409Z,100116.45
2018-09-14T10:27:55.042Z,100112.92
2018-09-14T10:29:30.632Z,100114.78
2018-09-14T10:31:06.252Z,100109.36
2018-09-14T10:32:41.893Z,100110.08
2018-09-14T10:34:17.517Z,100108.59
2018-09-14T10:35:53.031Z,100108.52
2018-09-14T10:37:28.594Z,100105.61
2018-09-14T10:39:06.345Z,100103.03
2018-09-14T10:40:41.904Z,100097.85
2018-09-14T10:42:17.369Z,100095.88
2018-09-14T10:43:52.899Z,100099.52
2018-09-14T10:45:28.502Z,100099.53
2018-09-14T10:47:04.044Z,100098.94
2018-09-14T10:48:39.613Z,100102.77
2018-09-14T10:50:15.122Z,100100.80
2018-09-14T10:51:50.672Z,100098.78
2018-09-14T10:53:26.227Z,100092.75
2018-09-14T10:55:01.764Z,100091.89
2018-09-14T10:56:37.278Z,100090.55
2018-09-14T10:58:12.867Z,100090.22
2018-09-14T10:59:48.399Z,100093.89
2018-09-14T11:01:23.890Z,100088.22
2018-09-14T11:02:59.445Z,100089.06
2018-09-14T11:04:35.007Z,100092.56
2018-09-14T11:06:10.549Z,100090.03
2018-09-14T11:07:46.117Z,100094.44
2018-09-14T11:09:21.653Z,100099.58
2018-09-14T11:10:57.165Z,100093.53
2018-09-14T11:12:32.703Z,100093.68
2018-09-14T11:14:08.395Z,100097.75
2018-09-14T11:15:43.901Z,100101.25
2018-09-14T11:17:19.455Z,100099.72
2018-09-14T11:18:55.121Z,100090.50
2018-09-14T11:20:30.976Z,100095.33
2018-09-14T11:22:06.501Z,100089.48
2018-09-14T11:23:46.334Z,100095.06
2018-09-14T11:25:22.097Z,100092.91
2018-09-14T11:26:57.611Z,100091.06
2018-09-14T11:28:33.235Z,100087.66
2018-09-14T11:30:09.455Z,100092.06
2018-09-14T11:31:44.992Z,100095.56
2018-09-14T11:33:20.604Z,100088.28
2018-09-14T11:34:56.819Z,100087.59
2018-09-14T11:36:32.444Z,100087.42
2018-09-14T11:38:08.737Z,100082.39
2018-09-14T11:39:44.619Z,100085.27
2018-09-14T11:41:20.432Z,100083.52
2018-09-14T11:42:56.045Z,100087.47
2018-09-14T11:44:31.669Z,100080.27
2018-09-14T11:46:07.216Z,100081.37
2018-09-14T11:47:42.724Z,100079.88
2018-09-14T11:49:18.261Z,100075.75
2018-09-14T11:50:53.816Z,100084.58
2018-09-14T11:52:29.365Z,100081.31
2018-09-14T11:54:06.553Z,100078.09
2018-09-14T11:55:42.028Z,100079.06
2018-09-14T11:57:17.690Z,100075.06
2018-09-14T11:58:53.271Z,100072.73
2018-09-14T12:00:28.837Z,100075.27
2018-09-14T12:02:04.361Z,100061.61
2018-09-14T12:03:39.965Z,100071.88
2018-09-14T12:05:15.489Z,100061.25
2018-09-14T12:06:51.112Z,100063.89
2018-09-14T12:08:26.615Z,100062.65
2018-09-14T12:10:02.147Z,100061.16
2018-09-14T12:11:37.851Z,100057.48
2018-09-14T12:13:13.549Z,100063.14
2018-09-14T12:14:49.134Z,100062.12
2018-09-14T12:16:24.773Z,100053.26
2018-09-14T12:18:00.308Z,100052.92
2018-09-14T12:19:35.876Z,100053.97
2018-09-14T12:21:11.407Z,100050.09
2018-09-14T12:22:46.954Z,100043.39
2018-09-14T12:24:22.485Z,100038.19
2018-09-14T12:25:58.023Z,100035.03
2018-09-14T12:27:33.541Z,100033.36
2018-09-14T12:29:09.080Z,100027.59
2018-09-14T12:30:44.621Z,100017.91
2018-09-14T12:32:20.161Z,100021.31
2018-09-14T12:33:55.861Z,100022.01
2018-09-14T12:35:31.795Z,100024.45
2018-09-14T12:37:07.381Z,100024.08
2018-09-14T12:38:42.965Z,100016.31
2018-09-14T12:40:18.630Z,100015.46
2018-09-14T12:41:54.220Z,100016.19
2018-09-14T12:43:29.743Z,100018.82
2018-09-14T12:45:05.422Z,100014.12
2018-09-14T12:46:40.936Z,100011.78
2018-09-14T12:48:16.483Z,100013.55
2018-09-14T12:49:51.982Z,100012.18
2018-09-14T12:51:27.615Z,100012.76
2018-09-14T12:53:03.149Z,100006.98
2018-09-14T12:54:38.740Z,100010.07
2018-09-14T12:56:14.322Z,100008.86
2018-09-14T12:57:50.185Z,100010.45
2018-09-14T12:59:25.768Z,100007.84
2018-09-14T13:01:01.321Z,100006.37
2018-09-14T13:02:36.919Z,100001.92
2018-09-14T13:04:12.440Z,100003.21
2018-09-14T13:05:48.149Z,99993.56
2018-09-14T13:07:23.976Z,99992.17
2018-09-14T13:08:59.504Z,99990.76
2018-09-14T13:10:35.020Z,99988.45
2018-09-14T13:12:10.597Z,99981.47
2018-09-14T13:13:47.407Z,99982.50
2018-09-14T13:15:23.101Z,99984.48
2018-09-14T13:17:02.447Z,99984.51
2018-09-14T13:18:41.068Z,99984.06
2018-09-14T13:20:19.799Z,99981.77
2018-09-14T13:21:56.653Z,99986.52
2018-09-14T13:23:33.524Z,99972.03
2018-09-14T13:25:09.139Z,99975.60
2018-09-14T13:26:44.694Z,99976.00
2018-09-14T13:28:20.235Z,99931.39
2018-09-14T13:29:55.815Z,99975.14
2018-09-14T13:31:31.334Z,99977.59
2018-09-14T13:33:06.848Z,99972.20
2018-09-14T13:34:42.904Z,99975.78
2018-09-14T13:36:18.589Z,99979.21
2018-09-14T13:37:54.700Z,99965.17
2018-09-14T13:39:30.221Z,99967.68
2018-09-14T13:41:05.846Z,99963.14
2018-09-14T13:42:41.327Z,99964.63
2018-09-14T13:44:16.913Z,99962.58
2018-09-14T13:45:52.425Z,99960.77
2018-09-14T13:47:27.991Z,99964.06
2018-09-14T13:49:03.484Z,99954.02
2018-09-14T13:50:39.146Z,99955.73
2018-09-14T13:52:14.714Z,99965.52
2018-09-14T13:53:50.247Z,99959.06
2018-09-14T13:55:25.953Z,99957.72
2018-09-14T13:57:01.447Z,99953.85
2018-09-14T13:58:36.935Z,99952.02
2018-09-14T14:00:12.471Z,99954.66
2018-09-14T14:01:48.051Z,99956.48
2018-09-14T14:03:24.397Z,99954.02
2018-09-14T14:05:00.166Z,99957.91
2018-09-14T14:06:35.671Z,99951.62
2018-09-14T14:08:11.185Z,99954.23
2018-09-14T14:09:46.791Z,99956.07
2018-09-14T14:11:22.691Z,99948.75
2018-09-14T14:12:58.218Z,99949.25
2018-09-14T14:14:33.754Z,99946.72
2018-09-14T14:16:10.223Z,99948.50
2018-09-14T14:17:45.877Z,99944.43
2018-09-14T14:19:21.429Z,99944.62
2018-09-14T14:20:57.118Z,99943.20
2018-09-14T14:22:34.940Z,99943.06
2018-09-14T14:24:10.428Z,99937.34
2018-09-14T14:25:47.807Z,99945.08
2018-09-14T14:27:23.420Z,99946.50
2018-09-14T14:28:58.920Z,99936.80
2018-09-14T14:30:35.633Z,99936.07
2018-09-14T14:32:14.538Z,99943.92
2018-09-14T14:33:50.501Z,99930.15
2018-09-14T14:35:27.504Z,99935.59
2018-09-14T14:37:03.467Z,99933.87
2018-09-14T14:38:39.364Z,99929.28
2018-09-14T14:40:15.158Z,99932.36
2018-09-14T14:41:50.669Z,99930.67
2018-09-14T14:43:26.333Z,99932.13
2018-09-14T14:45:08.605Z,99930.73
2018-09-14T14:46:44.086Z,99928.16
2018-09-14T14:48:19.670Z,99931.34
2018-09-14T14:49:55.204Z,99934.30
2018-09-14T14:51:30.918Z,99932.05
2018-09-14T14:53:06.399Z,99927.49
2018-09-14T14:54:42.378Z,99929.45
2018-09-14T14:56:17.940Z,99930.27
2018-09-14T14:57:53.806Z,99930.64
2018-09-14T14:59:29.343Z,99925.37
2018-09-14T15:01:05.217Z,99871.17
2018-09-14T15:02:40.774Z,99920.03
2018-09-14T15:04:18.029Z,99922.53
2018-09-14T15:05:54.501Z,99919.13
2018-09-14T15:07:31.148Z,99912.56
2018-09-14T15:09:08.500Z,99915.16
2018-09-14T15:10:44.003Z,99918.60
2018-09-14T15:12:19.509Z,99913.41
2018-09-14T15:13:54.992Z,99917.69
2018-09-14T15:15:31.559Z,99916.20
2018-09-14T15:17:07.132Z,99911.44
2018-09-14T15:18:42.685Z,99914.02
2018-09-14T15:20:18.203Z,99907.27
2018-09-14T15:21:53.867Z,99907.48
2018-09-14T15:23:29.356Z,99903.49
2018-09-14T15:25:04.857Z,99908.81
2018-09-14T15:26:40.326Z,99903.00
2018-09-14T15:28:17.492Z,99904.23
2018-09-14T15:29:52.952Z,99903.88
2018-09-14T15:31:28.807Z,99907.25
2018-09-14T15:33:05.107Z,99902.11
2018-09-14T15:34:40.653Z,99901.97
2018-09-14T15:36:17.664Z,99896.58
2018-09-14T15:37:53.239Z,99897.02
2018-09-14T15:39:28.797Z,99891.52
2018-09-14T15:41:04.257Z,99896.84
2018-09-14T15:42:39.761Z,99892.91
2018-09-14T15:44:15.237Z,99900.73
2018-09-14T15:45:50.947Z,99898.72
2018-09-14T15:47:26.492Z,99890.95
2018-09-14T15:49:01.991Z,99897.65
2018-09-14T15:50:37.481Z,99901.39
2018-09-14T15:52:13.125Z,99894.97
2018-09-14T15:53:48.724Z,99888.47
2018-09-14T15:55:24.257Z,99892.72
2018-09-14T15:56:59.724Z,99889.30
2018-09-14T15:58:35.241Z,99891.02
2018-09-14T16:00:10.807Z,99887.15
2018-09-14T16:01:46.321Z,99884.89
2018-09-14T16:03:21.861Z,99890.31
2018-09-14T16:04:57.335Z,99894.41
2018-09-14T16:06:32.844Z,99891.03
2018-09-14T16:08:08.348Z,99894.39
2018-09-14T16:09:43.866Z,99896.14
2018-09-14T16:11:19.392Z,99887.35
2018-09-14T16:12:54.947Z,99889.91
2018-09-14T16:14:30.441Z,99891.64
2018-09-14T16:16:05.923Z,99891.08
2018-09-14T16:17:41.444Z,99891.39
2018-09-14T16:19:17.590Z,99885.69
2018-09-14T16:20:53.096Z,99884.01
2018-09-14T16:22:28.663Z,99888.11
2018-09-14T16:24:04.157Z,99885.89
2018-09-14T16:25:39.667Z,99886.77
2018-09-14T16:27:15.190Z,99884.80
2018-09-14T16:28:50.925Z,99888.26
2018-09-14T16:30:26.731Z,99893.92
2018-09-14T16:32:02.221Z,99896.50
2018-09-14T16:33:37.811Z,99891.29
2018-09-14T16:35:13.511Z,99886.33
2018-09-14T16:36:49.036Z,99887.97
2018-09-14T16:38:24.682Z,99884.72
2018-09-14T16:40:00.381Z,99885.03
2018-09-14T16:41:36.687Z,99886.93
2018-09-14T16:43:12.211Z,99887.29
2018-09-14T16:46:21.992Z,99883.47
2018-09-14T16:47:57.616Z,99887.16
2018-09-14T16:49:33.110Z,99885.34
2018-09-14T16:51:08.716Z,99886.87
2018-09-14T16:52:44.418Z,99891.06
2018-09-14T16:54:20.236Z,99891.73
2018-09-14T16:55:56.029Z,99896.86
2018-09-14T16:57:32.240Z,99905.55
2018-09-14T16:59:07.797Z,99904.03
2018-09-14T17:00:43.261Z,99904.38
2018-09-14T17:02:18.830Z,99912.69
2018-09-14T17:03:54.358Z,99910.81
2018-09-14T17:05:30.868Z,99911.30
2018-09-14T17:07:11.225Z,99916.32
2018-09-14T17:08:46.743Z,99913.62
2018-09-14T17:10:22.324Z,99914.64
2018-09-14T17:11:57.829Z,99915.91
2018-09-14T17:13:33.436Z,99919.59
2018-09-14T17:15:09.783Z,99916.86
2018-09-14T17:16:46.135Z,99919.73
2018-09-14T17:18:21.682Z,99918.58
2018-09-14T17:19:57.201Z,99918.19
2018-09-14T17:21:32.830Z,99914.19
2018-09-14T17:23:08.267Z,99919.31
2018-09-14T17:24:43.844Z,99924.47
2018-09-14T17:26:19.420Z,99925.98
2018-09-14T17:27:55.014Z,99928.29
2018-09-14T17:29:30.701Z,99927.74
2018-09-14T17:31:06.259Z,99927.39
2018-09-14T17:32:41.939Z,99935.01
2018-09-14T17:34:17.627Z,99940.66
2018-09-14T17:35:53.154Z,99940.16
2018-09-14T17:37:35.148Z,99940.45
2018-09-14T17:39:12.240Z,99939.81
2018-09-14T17:40:47.845Z,99943.86
2018-09-14T17:42:24.578Z,99940.53
2018-09-14T17:44:02.146Z,99939.98
2018-09-14T17:45:35.703Z,99938.42
2018-09-14T17:47:11.251Z,99935.56
2018-09-14T17:48:46.801Z,99937.44
2018-09-14T17:50:22.323Z,99935.22
2018-09-14T17:51:57.905Z,99935.64
2018-09-14T17:53:33.645Z,99936.96
2018-09-14T17:55:09.146Z,99941.87
2018-09-14T17:56:44.804Z,99942.30
2018-09-14T17:58:20.341Z,99941.67
2018-09-14T17:59:55.941Z,99945.19
2018-09-14T18:01:31.741Z,99943.33
2018-09-14T18:03:07.243Z,99943.61
2018-09-14T18:04:43.673Z,99948.19
2018-09-14T18:06:19.253Z,99950.73
2018-09-14T18:07:54.785Z,99950.27
2018-09-14T18:09:30.375Z,99951.67
2018-09-14T18:11:07.021Z,99951.18
2018-09-14T18:12:42.708Z,99902.67
2018-09-14T18:14:18.275Z,99895.00
2018-09-14T18:15:55.550Z,99954.81
2018-09-14T18:17:32.255Z,99952.84
2018-09-14T18:19:08.651Z,99953.51
2018-09-14T18:20:45.128Z,99955.36
2018-09-14T18:22:27.603Z,99955.60
2018-09-14T18:24:06.381Z,99958.09
2018-09-14T18:25:43.964Z,99955.60
2018-09-14T18:27:19.653Z,99952.53